Hatch, New Mexico
Current Conditions -  °F | °C
As of 4:15 PM on Friday 31 Oct 2014 (Local Time) from KLRU Reporting Station
Clear Clear  
Wind Chill: 70°   Ceiling: Unl
Heat Index: 70°   Visibility: 10mi
Dew Point: 40°   Wind: 16mph
Humidity: 33%   Direction: 110°ESE
Pressure: 30.21"   Gusts: NA
Location:  32.67°N, 107.15°W
Report Text: KLRU 312215Z AUTO 11014KT 10SM CLR 21/04 A3021 RMK AO2 T02120042
Loading
Personal Weather Stations






























Interactive Weather Map
Tropical Storm Tracking
New forecast layout! Learn more

10-Day Weather Forecast

Advertisements
Track Severe Weather on mobile